Time;durP1;ratioP1;P1;durP2;ratioP2;P2;SDS_P1;SDS_P2;PMS_P1;PMS_P2;Temp;Humidity;BMP_temperature;BMP_pressure;BME280_temperature;BME280_humidity;BME280_pressure;Samples;Min_cycle;Max_cycle;Signal;HPM_P1;HPM_P2
2022/12/09 00:00:35;;;;;;;;;;;;;;;;;;4994962;28;7134;-75
2022/12/09 00:03:01;;;;;;;;;;;;;;;;;;4995121;28;7124;-75
2022/12/09 00:05:26;;;;;;;;;;;;;;;;;;4995111;28;7156;-75
2022/12/09 00:07:52;;;;;;;;;;;;;;;;;;4994926;28;7890;-75
2022/12/09 00:10:18;;;;;;;;;;;;;;;;;;4995217;28;6953;-75
2022/12/09 00:12:43;;;;;;;;;;;;;;;;;;4995108;28;7218;-75
2022/12/09 00:15:09;;;;;;;;;;;;;;;;;;4995711;28;7061;-75
2022/12/09 00:17:35;;;;;;;;;;;;;;;;;;4994932;28;7578;-75
2022/12/09 00:20:01;;;;;;;;;;;;;;;;;;4994854;28;6993;-75
2022/12/09 00:22:27;;;;;;;;;;;;;;;;;;4994994;28;7285;-75
2022/12/09 00:24:53;;;;;;;;;;;;;;;;;;4997677;28;7079;-75
2022/12/09 00:27:19;;;;;;;;;;;;;;;;;;4998623;28;7142;-75
2022/12/09 00:29:44;;;;;;;;;;;;;;;;;;4998372;28;7202;-75
2022/12/09 00:32:10;;;;;;;;;;;;;;;;;;4998672;28;7076;-75
2022/12/09 00:34:36;;;;;;;;;;;;;;;;;;4998581;28;7449;-76
2022/12/09 00:37:01;;;;;;;;;;;;;;;;;;4998279;28;7402;-75
2022/12/09 00:39:27;;;;;;;;;;;;;;;;;;4999168;28;7318;-75
2022/12/09 00:41:53;;;;;;;;;;;;;;;;;;4998481;28;7178;-75
2022/12/09 00:44:18;;;;;;;;;;;;;;;;;;4997999;28;7157;-75
2022/12/09 00:46:44;;;;;;;;;;;;;;;;;;4998180;28;7178;-75
2022/12/09 00:49:09;;;;;;;;;;;;;;;;;;4998242;28;7113;-75
2022/12/09 00:51:35;;;;;;;;;;;;;;;;;;4998084;28;7097;-75
2022/12/09 00:54:01;;;;;;;;;;;;;;;;;;4998790;28;6880;-75
2022/12/09 00:56:28;;;;;;;;;;;;;;;;;;4998122;28;7156;-75
2022/12/09 00:58:55;;;;;;;;;;;;;;;;;;4997973;28;7193;-75
2022/12/09 01:01:21;;;;;;;;;;;;;;;;;;4997718;28;7087;-76
2022/12/09 01:03:47;;;;;;;;;;;;;;;;;;4997891;28;7114;-75
2022/12/09 01:06:24;;;;;;;;;;;;;;;;;;4997656;28;6957;-75
2022/12/09 01:08:49;;;;;;;;;;;;;;;;;;4997775;28;7513;-76
2022/12/09 01:11:24;;;;;;;;;;;;;;;;;;4980497;28;7464;-75
2022/12/09 01:14:01;;;;;;;;;;;;;;;;;;4997733;28;7126;-76
2022/12/09 01:16:29;;;;;;;;;;;;;;;;;;4997817;28;7138;-75
2022/12/09 01:18:58;;;;;;;;;;;;;;;;;;4997526;28;7097;-75
2022/12/09 01:21:25;;;;;;;;;;;;;;;;;;4997649;28;7087;-75
2022/12/09 01:23:51;;;;;;;;;;;;;;;;;;4997600;28;7072;-75
2022/12/09 01:26:16;;;;;;;;;;;;;;;;;;4997436;28;7055;-76
2022/12/09 01:28:43;;;;;;;;;;;;;;;;;;4997431;28;6908;-75
2022/12/09 01:31:16;;;;;;;;;;;;;;;;;;4997356;28;7444;-75
2022/12/09 01:33:42;;;;;;;;;;;;;;;;;;4997067;28;7154;-75
2022/12/09 01:36:10;;;;;;;;;;;;;;;;;;4996843;28;7158;-75
2022/12/09 01:38:36;;;;;;;;;;;;;;;;;;4996904;28;7172;-75
2022/12/09 01:41:02;;;;;;;;;;;;;;;;;;4997140;28;7237;-75
2022/12/09 01:43:28;;;;;;;;;;;;;;;;;;4997205;28;7138;-75
2022/12/09 01:45:54;;;;;;;;;;;;;;;;;;4997314;28;7123;-75
2022/12/09 01:48:23;;;;;;;;;;;;;;;;;;4997037;28;7399;-76
2022/12/09 01:50:53;;;;;;;;;;;;;;;;;;4976089;28;8433;-75
2022/12/09 01:53:22;;;;;;;;;;;;;;;;;;4977612;28;7206;-76
2022/12/09 01:55:49;;;;;;;;;;;;;;;;;;4977533;28;7105;-75
2022/12/09 01:58:15;;;;;;;;;;;;;;;;;;4977519;28;7093;-75
2022/12/09 02:00:43;;;;;;;;;;;;;;;;;;4977292;28;7098;-75
2022/12/09 02:03:09;;;;;;;;;;;;;;;;;;4977123;28;7371;-75
2022/12/09 02:05:36;;;;;;;;;;;;;;;;;;4977454;28;7361;-75
2022/12/09 02:08:02;;;;;;;;;;;;;;;;;;4976920;28;8547;-76
2022/12/09 02:10:28;;;;;;;;;;;;;;;;;;4977132;28;7313;-76
2022/12/09 02:13:11;;;;;;;;;;;;;;;;;;4977223;28;7229;-75
2022/12/09 02:16:00;;;;;;;;;;;;;;;;;;4977413;28;7116;-75
2022/12/09 02:18:36;;;;;;;;;;;;;;;;;;4977239;28;7628;-76
2022/12/09 02:21:11;;;;;;;;;;;;;;;;;;4977231;28;7075;-76
2022/12/09 02:23:55;;;;;;;;;;;;;;;;;;4976953;28;6995;-76
2022/12/09 02:26:27;;;;;;;;;;;;;;;;;;4977052;28;7194;-75
2022/12/09 02:29:11;;;;;;;;;;;;;;;;;;4976955;28;6948;-75
2022/12/09 02:31:55;;;;;;;;;;;;;;;;;;4976847;28;7144;-76
2022/12/09 02:34:22;;;;;;;;;;;;;;;;;;4976911;28;7139;-75
2022/12/09 02:36:57;;;;;;;;;;;;;;;;;;4976766;28;7034;-76
2022/12/09 02:39:38;;;;;;;;;;;;;;;;;;4976658;28;7155;-76
2022/12/09 02:42:07;;;;;;;;;;;;;;;;;;4976464;28;7398;-75
2022/12/09 02:44:36;;;;;;;;;;;;;;;;;;4976631;28;7655;-75
2022/12/09 02:47:05;;;;;;;;;;;;;;;;;;4976156;28;7313;-76
2022/12/09 02:49:34;;;;;;;;;;;;;;;;;;4976793;28;7007;-76
2022/12/09 02:52:01;;;;;;;;;;;;;;;;;;4995864;28;7005;-76
2022/12/09 02:54:30;;;;;;;;;;;;;;;;;;4996774;28;7039;-76
2022/12/09 02:57:00;;;;;;;;;;;;;;;;;;4995706;28;6983;-75
2022/12/09 02:59:27;;;;;;;;;;;;;;;;;;4995757;28;7215;-76
2022/12/09 03:01:53;;;;;;;;;;;;;;;;;;4995761;28;7062;-76
2022/12/09 03:04:23;;;;;;;;;;;;;;;;;;4995905;28;7124;-76
2022/12/09 03:06:53;;;;;;;;;;;;;;;;;;4995377;28;7002;-76
2022/12/09 03:09:33;;;;;;;;;;;;;;;;;;4995851;28;7331;-76
2022/12/09 03:12:05;;;;;;;;;;;;;;;;;;4995536;28;7199;-76
2022/12/09 03:14:37;;;;;;;;;;;;;;;;;;4995271;28;7746;-76
2022/12/09 03:17:13;;;;;;;;;;;;;;;;;;4995162;28;7091;-76
2022/12/09 03:19:45;;;;;;;;;;;;;;;;;;4995549;28;7392;-76
2022/12/09 03:22:14;;;;;;;;;;;;;;;;;;4995445;28;7370;-76
2022/12/09 03:24:43;;;;;;;;;;;;;;;;;;4995523;28;7139;-76
2022/12/09 03:27:12;;;;;;;;;;;;;;;;;;4995255;28;7356;-76
2022/12/09 03:29:42;;;;;;;;;;;;;;;;;;4995484;28;7481;-76
2022/12/09 03:32:11;;;;;;;;;;;;;;;;;;4995468;28;7406;-76
2022/12/09 03:34:40;;;;;;;;;;;;;;;;;;4995048;28;7205;-76
2022/12/09 03:37:08;;;;;;;;;;;;;;;;;;4995313;28;7115;-76
2022/12/09 03:39:35;;;;;;;;;;;;;;;;;;4995245;28;7222;-76
2022/12/09 03:42:05;;;;;;;;;;;;;;;;;;4995500;28;7260;-76
2022/12/09 03:44:38;;;;;;;;;;;;;;;;;;4995894;28;6976;-76
2022/12/09 03:47:05;;;;;;;;;;;;;;;;;;4995271;28;7080;-75
2022/12/09 03:49:31;;;;;;;;;;;;;;;;;;4994840;28;7240;-76
2022/12/09 03:52:02;;;;;;;;;;;;;;;;;;4995196;28;7006;-76
2022/12/09 03:54:35;;;;;;;;;;;;;;;;;;4977566;28;7182;-76
2022/12/09 03:57:01;;;;;;;;;;;;;;;;;;4995365;28;7157;-76
2022/12/09 03:59:30;;;;;;;;;;;;;;;;;;4999029;28;7081;-76
2022/12/09 04:01:56;;;;;;;;;;;;;;;;;;4999075;28;7136;-75
2022/12/09 04:04:22;;;;;;;;;;;;;;;;;;4999256;28;7560;-76
2022/12/09 04:06:51;;;;;;;;;;;;;;;;;;4998861;28;7125;-76
2022/12/09 04:09:16;;;;;;;;;;;;;;;;;;4998964;28;7354;-76
2022/12/09 04:11:42;;;;;;;;;;;;;;;;;;4999166;28;7368;-76
2022/12/09 04:14:07;;;;;;;;;;;;;;;;;;4998996;28;7094;-76
2022/12/09 04:16:33;;;;;;;;;;;;;;;;;;4998540;28;7423;-76
2022/12/09 04:18:59;;;;;;;;;;;;;;;;;;4998711;28;7331;-76
2022/12/09 04:21:25;;;;;;;;;;;;;;;;;;4998869;28;6951;-76
2022/12/09 04:23:50;;;;;;;;;;;;;;;;;;4998813;28;6917;-77
2022/12/09 04:26:20;;;;;;;;;;;;;;;;;;4998554;28;7024;-77
2022/12/09 04:28:46;;;;;;;;;;;;;;;;;;4987636;28;7251;-76
2022/12/09 04:34:10;;;;;;;;;;;;;;;;;;4989633;28;7147;-76
2022/12/09 04:36:41;;;;;;;;;;;;;;;;;;4988760;28;6941;-76
2022/12/09 04:39:07;;;;;;;;;;;;;;;;;;4987302;28;7137;-75
2022/12/09 04:41:39;;;;;;;;;;;;;;;;;;4988040;28;7084;-75
2022/12/09 04:44:05;;;;;;;;;;;;;;;;;;4987295;28;7067;-75
2022/12/09 04:46:40;;;;;;;;;;;;;;;;;;4988220;28;7490;-76
2022/12/09 04:49:05;;;;;;;;;;;;;;;;;;4986127;28;7279;-76
2022/12/09 04:51:31;;;;;;;;;;;;;;;;;;4983148;28;7193;-76
2022/12/09 04:53:59;;;;;;;;;;;;;;;;;;4986014;28;7384;-76
2022/12/09 04:56:24;;;;;;;;;;;;;;;;;;4987129;28;7187;-76
2022/12/09 04:59:13;;;;;;;;;;;;;;;;;;4987818;28;7287;-76
2022/12/09 05:01:39;;;;;;;;;;;;;;;;;;4988442;28;6994;-76
2022/12/09 05:04:04;;;;;;;;;;;;;;;;;;4978027;28;8374;-76
2022/12/09 05:09:33;;;;;;;;;;;;;;;;;;4996786;28;7114;-76
2022/12/09 05:12:07;;;;;;;;;;;;;;;;;;4997392;28;8215;-76
2022/12/09 05:14:33;;;;;;;;;;;;;;;;;;4997505;28;7205;-75
2022/12/09 05:16:58;;;;;;;;;;;;;;;;;;4997892;28;7279;-76
2022/12/09 05:19:40;;;;;;;;;;;;;;;;;;4997748;28;6947;-76
2022/12/09 05:22:06;;;;;;;;;;;;;;;;;;4997809;28;7303;-76
2022/12/09 05:24:43;;;;;;;;;;;;;;;;;;4997682;28;7001;-75
2022/12/09 05:27:09;;;;;;;;;;;;;;;;;;4997402;28;7443;-76
2022/12/09 05:29:54;;;;;;;;;;;;;;;;;;4997194;28;6944;-76
2022/12/09 05:32:20;;;;;;;;;;;;;;;;;;4998187;28;7410;-75
2022/12/09 05:34:46;;;;;;;;;;;;;;;;;;4997397;28;7062;-75
2022/12/09 05:40:50;;;;;;;;;;;;;;;;;;5052101;28;6983;-77
2022/12/09 05:43:17;;;;;;;;;;;;;;;;;;5032039;28;7219;-77
2022/12/09 05:45:48;;;;;;;;;;;;;;;;;;5032577;28;6826;-77
2022/12/09 05:48:16;;;;;;;;;;;;;;;;;;5032020;28;7093;-77
2022/12/09 05:50:41;;;;;;;;;;;;;;;;;;5029911;28;6926;-77
2022/12/09 05:53:07;;;;;;;;;;;;;;;;;;5022804;28;7373;-77
2022/12/09 05:55:32;;;;;;;;;;;;;;;;;;5020611;28;7112;-77
2022/12/09 05:58:08;;;;;;;;;;;;;;;;;;5022194;28;7192;-78
2022/12/09 06:00:33;;;;;;;;;;;;;;;;;;5022558;28;6969;-77
2022/12/09 06:03:00;;;;;;;;;;;;;;;;;;5020134;28;7391;-78
2022/12/09 06:05:26;;;;;;;;;;;;;;;;;;5020921;28;8427;-77
2022/12/09 06:07:57;;;;;;;;;;;;;;;;;;5020845;28;7322;-77
2022/12/09 06:10:22;;;;;;;;;;;;;;;;;;5020364;28;7377;-78
2022/12/09 06:12:48;;;;;;;;;;;;;;;;;;5020446;28;7181;-76
2022/12/09 06:15:14;;;;;;;;;;;;;;;;;;5022336;28;7582;-79
2022/12/09 06:17:52;;;;;;;;;;;;;;;;;;5021252;28;7011;-77
2022/12/09 06:20:18;;;;;;;;;;;;;;;;;;5020900;28;7479;-77
2022/12/09 06:22:58;;;;;;;;;;;;;;;;;;5018337;28;7131;-73
2022/12/09 06:25:23;;;;;;;;;;;;;;;;;;5010328;28;7189;-74
2022/12/09 06:28:07;;;;;;;;;;;;;;;;;;5012000;28;7039;-74
2022/12/09 06:30:33;;;;;;;;;;;;;;;;;;5011544;28;6908;-73
2022/12/09 06:33:34;;;;;;;;;;;;;;;;;;5011335;28;7288;-73
2022/12/09 06:36:00;;;;;;;;;;;;;;;;;;5011797;28;7174;-73
2022/12/09 06:41:29;;;;;;;;;;;;;;;;;;5029908;28;6983;-73
2022/12/09 06:50:01;;;;;;;;;;;;;;;;;;5029865;28;6678;-73
2022/12/09 06:52:27;;;;;;;;;;;;;;;;;;5017409;28;6979;-73
2022/12/09 06:54:53;;;;;;;;;;;;;;;;;;5017672;28;7073;-73
2022/12/09 06:57:48;;;;;;;;;;;;;;;;;;5017751;28;7178;-73
2022/12/09 07:00:14;;;;;;;;;;;;;;;;;;5016319;28;7373;-73
2022/12/09 07:05:54;;;;;;;;;;;;;;;;;;5017577;28;6709;-73
2022/12/09 07:08:20;;;;;;;;;;;;;;;;;;5017578;28;7010;-73
2022/12/09 07:10:45;;;;;;;;;;;;;;;;;;5032558;28;8432;-73
2022/12/09 07:13:15;;;;;;;;;;;;;;;;;;5017241;28;7040;-73
2022/12/09 07:15:41;;;;;;;;;;;;;;;;;;5032893;28;7133;-73
2022/12/09 07:18:12;;;;;;;;;;;;;;;;;;5035598;28;8435;-73
2022/12/09 07:20:38;;;;;;;;;;;;;;;;;;5036820;28;7013;-73
2022/12/09 07:23:05;;;;;;;;;;;;;;;;;;5036768;28;6983;-73
2022/12/09 07:25:30;;;;;;;;;;;;;;;;;;5036528;28;7007;-73
2022/12/09 07:27:57;;;;;;;;;;;;;;;;;;5036581;28;7117;-73
2022/12/09 07:30:22;;;;;;;;;;;;;;;;;;5036698;28;7156;-73
2022/12/09 07:36:08;;;;;;;;;;;;;;;;;;5036591;28;6689;-73
2022/12/09 07:38:33;;;;;;;;;;;;;;;;;;5036522;28;7185;-73
2022/12/09 07:41:07;;;;;;;;;;;;;;;;;;5033248;28;7361;-73
2022/12/09 07:46:42;;;;;;;;;;;;;;;;;;5036342;28;6709;-73
2022/12/09 07:49:10;;;;;;;;;;;;;;;;;;5036092;28;7046;-73
2022/12/09 07:57:44;;;;;;;;;;;;;;;;;;5035819;28;6677;-73
2022/12/09 08:00:10;;;;;;;;;;;;;;;;;;5035990;28;7045;-73
2022/12/09 08:05:29;;;;;;;;;;;;;;;;;;5036631;28;7086;-73
2022/12/09 08:08:01;;;;;;;;;;;;;;;;;;5035712;28;7058;-73
2022/12/09 08:10:27;;;;;;;;;;;;;;;;;;5036061;28;7366;-73
2022/12/09 08:13:00;;;;;;;;;;;;;;;;;;5035750;28;7373;-73
2022/12/09 08:15:26;;;;;;;;;;;;;;;;;;5035852;28;7507;-73
2022/12/09 08:17:52;;;;;;;;;;;;;;;;;;5035846;28;7073;-73
2022/12/09 08:20:18;;;;;;;;;;;;;;;;;;5035924;28;7447;-73
2022/12/09 08:22:44;;;;;;;;;;;;;;;;;;5035956;28;7429;-73
2022/12/09 08:25:09;;;;;;;;;;;;;;;;;;5035897;28;7389;-73
2022/12/09 08:27:53;;;;;;;;;;;;;;;;;;5035654;28;7225;-73
2022/12/09 08:30:23;;;;;;;;;;;;;;;;;;5035308;28;6987;-64
2022/12/09 08:33:16;;;;;;;;;;;;;;;;;;5035204;28;7274;-64
2022/12/09 08:35:42;;;;;;;;;;;;;;;;;;5035661;28;6968;-64
2022/12/09 08:41:18;;;;;;;;;;;;;;;;;;5032436;28;7026;-64
2022/12/09 08:43:50;;;;;;;;;;;;;;;;;;5033479;28;7185;-64
2022/12/09 08:46:16;;;;;;;;;;;;;;;;;;5035006;28;7349;-73
2022/12/09 08:48:54;;;;;;;;;;;;;;;;;;5033770;28;7301;-73
2022/12/09 08:51:19;;;;;;;;;;;;;;;;;;5035583;28;7281;-72
2022/12/09 08:57:05;;;;;;;;;;;;;;;;;;5035056;28;6853;-73
2022/12/09 08:59:31;;;;;;;;;;;;;;;;;;5034713;28;7422;-73
2022/12/09 09:04:53;;;;;;;;;;;;;;;;;;5035973;28;7114;-64
2022/12/09 09:10:21;;;;;;;;;;;;;;;;;;5034715;28;6829;-64
2022/12/09 09:12:47;;;;;;;;;;;;;;;;;;5035076;28;6946;-64
2022/12/09 09:15:20;;;;;;;;;;;;;;;;;;5034793;28;6944;-64
2022/12/09 09:17:46;;;;;;;;;;;;;;;;;;5034693;28;7011;-64
2022/12/09 09:29:29;;;;;;;;;;;;;;;;;;5033179;28;7006;-64
2022/12/09 09:31:55;;;;;;;;;;;;;;;;;;5031697;28;6825;-64
2022/12/09 09:34:53;;;;;;;;;;;;;;;;;;5034532;28;7076;-73
2022/12/09 09:37:18;;;;;;;;;;;;;;;;;;5034558;28;7162;-73
2022/12/09 09:42:56;;;;;;;;;;;;;;;;;;5034691;28;6971;-73
2022/12/09 09:48:32;;;;;;;;;;;;;;;;;;5034071;28;6912;-73
2022/12/09 09:51:11;;;;;;;;;;;;;;;;;;5034207;28;6923;-73
2022/12/09 10:00:02;;;;;;;;;;;;;;;;;;5034339;28;6955;-73
2022/12/09 10:02:28;;;;;;;;;;;;;;;;;;5034512;28;7201;-73
2022/12/09 10:05:13;;;;;;;;;;;;;;;;;;5034496;28;7096;-73
2022/12/09 10:07:43;;;;;;;;;;;;;;;;;;5031420;28;7204;-73
2022/12/09 10:13:28;;;;;;;;;;;;;;;;;;5033883;28;6784;-75
2022/12/09 10:19:19;;;;;;;;;;;;;;;;;;5033930;28;6681;-75
2022/12/09 10:21:47;;;;;;;;;;;;;;;;;;5034414;28;7637;-74
2022/12/09 10:24:23;;;;;;;;;;;;;;;;;;5034307;28;7490;-75
2022/12/09 10:26:56;;;;;;;;;;;;;;;;;;5036738;28;6896;-75
2022/12/09 10:29:33;;;;;;;;;;;;;;;;;;5037773;28;7099;-74
2022/12/09 10:32:31;;;;;;;;;;;;;;;;;;5038061;28;7041;-75
2022/12/09 10:34:57;;;;;;;;;;;;;;;;;;5037903;28;7199;-74
2022/12/09 10:37:35;;;;;;;;;;;;;;;;;;5037227;28;7413;-75
2022/12/09 10:40:01;;;;;;;;;;;;;;;;;;5037690;28;7104;-72
2022/12/09 10:45:11;;;;;;;;;;;;;;;;;;5037777;28;6796;-74
2022/12/09 10:48:04;;;;;;;;;;;;;;;;;;5037420;28;7051;-74
2022/12/09 10:50:31;;;;;;;;;;;;;;;;;;5037579;28;7212;-74
2022/12/09 10:53:19;;;;;;;;;;;;;;;;;;5037677;28;7115;-74
2022/12/09 10:55:49;;;;;;;;;;;;;;;;;;5036588;28;7111;-75
2022/12/09 10:58:17;;;;;;;;;;;;;;;;;;5036933;28;7262;-75
2022/12/09 11:04:00;;;;;;;;;;;;;;;;;;5037122;28;7011;-75
2022/12/09 11:06:28;;;;;;;;;;;;;;;;;;5037129;28;7371;-74
2022/12/09 11:08:55;;;;;;;;;;;;;;;;;;5037173;28;7169;-74
2022/12/09 11:11:39;;;;;;;;;;;;;;;;;;5037274;28;7296;-74
2022/12/09 11:23:26;;;;;;;;;;;;;;;;;;4976135;28;7280;-74
2022/12/09 11:25:55;;;;;;;;;;;;;;;;;;4976233;28;6870;-74
2022/12/09 11:28:38;;;;;;;;;;;;;;;;;;4975864;28;7070;-76
2022/12/09 11:31:17;;;;;;;;;;;;;;;;;;4975786;28;7182;-75
2022/12/09 11:33:52;;;;;;;;;;;;;;;;;;4976062;28;6970;-74
2022/12/09 11:36:30;;;;;;;;;;;;;;;;;;4975917;28;7589;-75
2022/12/09 11:39:14;;;;;;;;;;;;;;;;;;4975660;28;7415;-75
2022/12/09 11:47:50;;;;;;;;;;;;;;;;;;4975615;28;6717;-74
2022/12/09 11:50:19;;;;;;;;;;;;;;;;;;4975529;28;6857;-75
2022/12/09 11:53:19;;;;;;;;;;;;;;;;;;4976245;28;7117;-74
2022/12/09 11:56:07;;;;;;;;;;;;;;;;;;5016386;28;7052;-74
2022/12/09 11:58:50;;;;;;;;;;;;;;;;;;5017182;28;7226;-74
2022/12/09 12:01:30;;;;;;;;;;;;;;;;;;5015982;28;7098;-74
2022/12/09 12:04:23;;;;;;;;;;;;;;;;;;5016159;28;6970;-74
2022/12/09 12:07:01;;;;;;;;;;;;;;;;;;5017124;28;7139;-74
2022/12/09 12:09:39;;;;;;;;;;;;;;;;;;5015705;28;7194;-74
2022/12/09 12:12:36;;;;;;;;;;;;;;;;;;5016786;28;7115;-74
2022/12/09 12:18:01;;;;;;;;;;;;;;;;;;5016329;28;7520;-74
2022/12/09 12:20:45;;;;;;;;;;;;;;;;;;5016261;28;7099;-74
2022/12/09 12:23:29;;;;;;;;;;;;;;;;;;5016083;28;7235;-74
2022/12/09 12:25:54;;;;;;;;;;;;;;;;;;5015790;28;6905;-74
2022/12/09 12:28:54;;;;;;;;;;;;;;;;;;5016220;28;7363;-74
2022/12/09 12:31:28;;;;;;;;;;;;;;;;;;5015781;28;7257;-74
2022/12/09 12:40:18;;;;;;;;;;;;;;;;;;5015548;28;6963;-74
2022/12/09 12:46:25;;;;;;;;;;;;;;;;;;4974624;28;6980;-74
2022/12/09 12:48:58;;;;;;;;;;;;;;;;;;4967346;28;7080;-74
2022/12/09 12:54:41;;;;;;;;;;;;;;;;;;4974876;28;6932;-73
2022/12/09 12:57:15;;;;;;;;;;;;;;;;;;4974210;28;6996;-74
2022/12/09 12:59:59;;;;;;;;;;;;;;;;;;4974175;28;6972;-74
2022/12/09 13:17:51;;;;;;;;;;;;;;;;;;4973792;28;7031;-73
2022/12/09 13:20:28;;;;;;;;;;;;;;;;;;5015776;28;7312;-74
2022/12/09 13:22:57;;;;;;;;;;;;;;;;;;5033351;28;7172;-74
2022/12/09 13:25:45;;;;;;;;;;;;;;;;;;5034853;28;7310;-74
2022/12/09 13:40:26;;;;;;;;;;;;;;;;;;5034953;28;6972;-74
2022/12/09 13:43:01;;;;;;;;;;;;;;;;;;5034297;28;7397;-73
2022/12/09 13:48:30;;;;;;;;;;;;;;;;;;5034387;28;6996;-73
2022/12/09 13:50:58;;;;;;;;;;;;;;;;;;5034485;28;7543;-73
2022/12/09 13:53:33;;;;;;;;;;;;;;;;;;5034384;28;7207;-73
2022/12/09 13:56:06;;;;;;;;;;;;;;;;;;5034634;28;7709;-73
2022/12/09 14:01:45;;;;;;;;;;;;;;;;;;5036388;28;6740;-73
2022/12/09 14:04:15;;;;;;;;;;;;;;;;;;5037694;28;8426;-73
2022/12/09 14:09:46;;;;;;;;;;;;;;;;;;5038243;28;6903;-74
2022/12/09 14:12:17;;;;;;;;;;;;;;;;;;5038030;28;7187;-73
2022/12/09 14:15:09;;;;;;;;;;;;;;;;;;5038315;28;7207;-73
2022/12/09 14:17:35;;;;;;;;;;;;;;;;;;5014457;28;7026;-73
2022/12/09 14:20:29;;;;;;;;;;;;;;;;;;5037942;28;7116;-74
2022/12/09 14:23:03;;;;;;;;;;;;;;;;;;5037900;28;7023;-73
2022/12/09 14:25:51;;;;;;;;;;;;;;;;;;5037314;28;7212;-73
2022/12/09 14:28:34;;;;;;;;;;;;;;;;;;5037456;28;7978;-73
2022/12/09 14:31:01;;;;;;;;;;;;;;;;;;5037319;28;7559;-74
2022/12/09 14:33:46;;;;;;;;;;;;;;;;;;5037807;28;7373;-73
2022/12/09 14:36:11;;;;;;;;;;;;;;;;;;5018192;28;7203;-74
2022/12/09 14:38:50;;;;;;;;;;;;;;;;;;5018052;28;7173;-73
2022/12/09 14:41:16;;;;;;;;;;;;;;;;;;5026130;28;7129;-73
2022/12/09 14:43:47;;;;;;;;;;;;;;;;;;5036638;28;8359;-73
2022/12/09 14:46:40;;;;;;;;;;;;;;;;;;5037818;28;6958;-73
2022/12/09 14:52:40;;;;;;;;;;;;;;;;;;5037368;28;6720;-73
2022/12/09 14:55:12;;;;;;;;;;;;;;;;;;5037558;28;7128;-74
2022/12/09 14:57:47;;;;;;;;;;;;;;;;;;5036969;28;7064;-73
2022/12/09 15:00:31;;;;;;;;;;;;;;;;;;5037304;28;6993;-73
2022/12/09 15:03:15;;;;;;;;;;;;;;;;;;5037190;28;7157;-82
2022/12/09 15:05:53;;;;;;;;;;;;;;;;;;5037080;28;7436;-73
2022/12/09 15:08:26;;;;;;;;;;;;;;;;;;5036844;28;7422;-73
2022/12/09 15:11:08;;;;;;;;;;;;;;;;;;5037232;28;7148;-73
2022/12/09 15:13:36;;;;;;;;;;;;;;;;;;5036959;28;7464;-73
2022/12/09 15:16:10;;;;;;;;;;;;;;;;;;5036893;28;7406;-73
2022/12/09 15:18:38;;;;;;;;;;;;;;;;;;5037537;28;7513;-73
2022/12/09 15:21:32;;;;;;;;;;;;;;;;;;5037055;28;7378;-73
2022/12/09 15:23:59;;;;;;;;;;;;;;;;;;5036468;28;7199;-73
2022/12/09 15:26:29;;;;;;;;;;;;;;;;;;5036692;28;6945;-74
2022/12/09 15:28:58;;;;;;;;;;;;;;;;;;5036830;28;7413;-73
2022/12/09 15:31:47;;;;;;;;;;;;;;;;;;5037176;28;7291;-74
2022/12/09 15:34:15;;;;;;;;;;;;;;;;;;5037032;28;7081;-73
2022/12/09 15:36:44;;;;;;;;;;;;;;;;;;5036890;28;7314;-73
2022/12/09 15:39:17;;;;;;;;;;;;;;;;;;5036751;28;7235;-74
2022/12/09 15:44:55;;;;;;;;;;;;;;;;;;5037415;28;7066;-73
2022/12/09 15:47:21;;;;;;;;;;;;;;;;;;5036309;28;6835;-74
2022/12/09 15:52:50;;;;;;;;;;;;;;;;;;5037509;28;7079;-74
2022/12/09 15:55:35;;;;;;;;;;;;;;;;;;5036597;28;7044;-74
2022/12/09 15:58:04;;;;;;;;;;;;;;;;;;5036377;28;6893;-65
2022/12/09 16:00:35;;;;;;;;;;;;;;;;;;5036401;28;7453;-73
2022/12/09 16:03:01;;;;;;;;;;;;;;;;;;5036492;28;7322;-64
2022/12/09 16:05:36;;;;;;;;;;;;;;;;;;5036356;28;7232;-65
2022/12/09 16:08:01;;;;;;;;;;;;;;;;;;5035875;28;7204;-65
2022/12/09 16:13:51;;;;;;;;;;;;;;;;;;5035467;28;6984;-64
2022/12/09 16:16:29;;;;;;;;;;;;;;;;;;5034831;28;7331;-64
2022/12/09 16:19:32;;;;;;;;;;;;;;;;;;5035881;28;7199;-64
2022/12/09 16:22:01;;;;;;;;;;;;;;;;;;5034458;28;6844;-64
2022/12/09 16:24:27;;;;;;;;;;;;;;;;;;5034885;28;7421;-65
2022/12/09 16:26:54;;;;;;;;;;;;;;;;;;5035818;28;7094;-64
2022/12/09 16:35:25;;;;;;;;;;;;;;;;;;5035674;28;6673;-64
2022/12/09 16:37:56;;;;;;;;;;;;;;;;;;5035559;28;7154;-64
2022/12/09 16:40:44;;;;;;;;;;;;;;;;;;5034977;28;7135;-64
2022/12/09 16:43:21;;;;;;;;;;;;;;;;;;5034101;28;7181;-64
2022/12/09 16:45:55;;;;;;;;;;;;;;;;;;5035159;28;6844;-64
2022/12/09 16:48:31;;;;;;;;;;;;;;;;;;5035361;28;7420;-64
2022/12/09 16:51:16;;;;;;;;;;;;;;;;;;5033680;28;7249;-65
2022/12/09 16:53:58;;;;;;;;;;;;;;;;;;5034098;28;7216;-64
2022/12/09 16:56:26;;;;;;;;;;;;;;;;;;5034613;28;7018;-65
2022/12/09 16:59:20;;;;;;;;;;;;;;;;;;5035264;28;7436;-64
2022/12/09 17:01:46;;;;;;;;;;;;;;;;;;5034406;28;7188;-64
2022/12/09 17:07:08;;;;;;;;;;;;;;;;;;5034529;28;6960;-64
2022/12/09 17:12:47;;;;;;;;;;;;;;;;;;5034837;28;7129;-64
2022/12/09 17:15:17;;;;;;;;;;;;;;;;;;5035080;28;7176;-64
2022/12/09 17:17:43;;;;;;;;;;;;;;;;;;5035118;28;7366;-64
2022/12/09 17:23:12;;;;;;;;;;;;;;;;;;5034726;28;6709;-64
2022/12/09 17:25:37;;;;;;;;;;;;;;;;;;5035041;28;7150;-64
2022/12/09 17:28:05;;;;;;;;;;;;;;;;;;5034846;28;7291;-64
2022/12/09 17:30:37;;;;;;;;;;;;;;;;;;5034879;28;7246;-64
2022/12/09 17:33:03;;;;;;;;;;;;;;;;;;5034834;28;7067;-65
2022/12/09 17:38:33;;;;;;;;;;;;;;;;;;5037482;28;6689;-64
2022/12/09 17:41:08;;;;;;;;;;;;;;;;;;5074365;28;7192;-64
2022/12/09 17:43:34;;;;;;;;;;;;;;;;;;5074798;28;7118;-64
2022/12/09 17:48:52;;;;;;;;;;;;;;;;;;5075412;28;7084;-73
2022/12/09 17:51:17;;;;;;;;;;;;;;;;;;5073482;28;7178;-73
2022/12/09 17:53:44;;;;;;;;;;;;;;;;;;5074521;28;7216;-73
2022/12/09 17:56:12;;;;;;;;;;;;;;;;;;5056561;28;8438;-73
2022/12/09 17:58:38;;;;;;;;;;;;;;;;;;5074193;28;7181;-74
2022/12/09 18:01:10;;;;;;;;;;;;;;;;;;5075298;28;7123;-73
2022/12/09 18:06:42;;;;;;;;;;;;;;;;;;5074350;28;6689;-73
2022/12/09 18:09:09;;;;;;;;;;;;;;;;;;5074159;28;7871;-73
2022/12/09 18:11:36;;;;;;;;;;;;;;;;;;5074659;28;7133;-73
2022/12/09 18:14:04;;;;;;;;;;;;;;;;;;5074027;28;6998;-73
2022/12/09 18:16:30;;;;;;;;;;;;;;;;;;5056148;28;8780;-73
2022/12/09 18:19:00;;;;;;;;;;;;;;;;;;5074306;28;6915;-73
2022/12/09 18:21:26;;;;;;;;;;;;;;;;;;5074514;28;7461;-73
2022/12/09 18:26:39;;;;;;;;;;;;;;;;;;5074379;28;7092;-73
2022/12/09 18:29:15;;;;;;;;;;;;;;;;;;5074181;28;6977;-73
2022/12/09 18:31:44;;;;;;;;;;;;;;;;;;5074191;28;7291;-73
2022/12/09 18:37:12;;;;;;;;;;;;;;;;;;5073878;28;6980;-74
2022/12/09 18:39:42;;;;;;;;;;;;;;;;;;5073840;28;7104;-73
2022/12/09 18:42:08;;;;;;;;;;;;;;;;;;5055925;28;8460;-74
2022/12/09 18:44:50;;;;;;;;;;;;;;;;;;5074204;28;7000;-73
2022/12/09 18:47:15;;;;;;;;;;;;;;;;;;5075495;28;6934;-73
2022/12/09 18:49:47;;;;;;;;;;;;;;;;;;5077725;28;7111;-73
2022/12/09 18:52:12;;;;;;;;;;;;;;;;;;5077759;28;6923;-73
2022/12/09 18:54:38;;;;;;;;;;;;;;;;;;5077805;28;6854;-73
2022/12/09 18:57:04;;;;;;;;;;;;;;;;;;5077462;28;6799;-73
2022/12/09 19:02:54;;;;;;;;;;;;;;;;;;5077401;28;6927;-74
2022/12/09 19:05:19;;;;;;;;;;;;;;;;;;5077447;28;7115;-73
2022/12/09 19:07:46;;;;;;;;;;;;;;;;;;5077375;28;6802;-73
2022/12/09 19:10:23;;;;;;;;;;;;;;;;;;5077289;28;7166;-74
2022/12/09 19:12:48;;;;;;;;;;;;;;;;;;5077506;28;7108;-73
2022/12/09 19:15:14;;;;;;;;;;;;;;;;;;5077246;28;7012;-74
2022/12/09 19:17:41;;;;;;;;;;;;;;;;;;5077123;28;7187;-73
2022/12/09 19:20:07;;;;;;;;;;;;;;;;;;5077116;28;7052;-73
2022/12/09 19:22:33;;;;;;;;;;;;;;;;;;5077220;28;6939;-74
2022/12/09 19:24:59;;;;;;;;;;;;;;;;;;5077094;28;8157;-73
2022/12/09 19:27:53;;;;;;;;;;;;;;;;;;5076809;28;7131;-73
2022/12/09 19:30:18;;;;;;;;;;;;;;;;;;5076882;28;7008;-73
2022/12/09 19:32:44;;;;;;;;;;;;;;;;;;5076770;28;7216;-73
2022/12/09 19:35:10;;;;;;;;;;;;;;;;;;5077221;28;7439;-73
2022/12/09 19:37:43;;;;;;;;;;;;;;;;;;5076812;28;7176;-74
2022/12/09 19:40:09;;;;;;;;;;;;;;;;;;5077258;28;7029;-73
2022/12/09 19:42:35;;;;;;;;;;;;;;;;;;5075985;28;7002;-73
2022/12/09 19:45:18;;;;;;;;;;;;;;;;;;5077156;28;7856;-73
2022/12/09 19:47:44;;;;;;;;;;;;;;;;;;5076729;28;7159;-74
2022/12/09 19:50:09;;;;;;;;;;;;;;;;;;5076596;28;7309;-73
2022/12/09 19:52:56;;;;;;;;;;;;;;;;;;5076715;28;7482;-73
2022/12/09 19:55:22;;;;;;;;;;;;;;;;;;5076528;28;7029;-64
2022/12/09 19:58:16;;;;;;;;;;;;;;;;;;5076563;28;6938;-64
2022/12/09 20:00:42;;;;;;;;;;;;;;;;;;5076375;28;6805;-64
2022/12/09 20:03:15;;;;;;;;;;;;;;;;;;5076444;28;7215;-64
2022/12/09 20:05:47;;;;;;;;;;;;;;;;;;5075978;28;7210;-64
2022/12/09 20:08:13;;;;;;;;;;;;;;;;;;5075960;28;6886;-65
2022/12/09 20:10:45;;;;;;;;;;;;;;;;;;5075952;28;7194;-65
2022/12/09 20:13:12;;;;;;;;;;;;;;;;;;5076050;28;7192;-64
2022/12/09 20:15:38;;;;;;;;;;;;;;;;;;5076720;28;7208;-65
2022/12/09 20:18:04;;;;;;;;;;;;;;;;;;5076149;28;7014;-65
2022/12/09 20:20:33;;;;;;;;;;;;;;;;;;5075998;28;7262;-66
2022/12/09 20:23:00;;;;;;;;;;;;;;;;;;5075864;28;7181;-65
2022/12/09 20:25:27;;;;;;;;;;;;;;;;;;5074868;28;6857;-74
2022/12/09 20:27:53;;;;;;;;;;;;;;;;;;5075809;28;7122;-73
2022/12/09 20:30:18;;;;;;;;;;;;;;;;;;5075622;28;7229;-65
2022/12/09 20:32:44;;;;;;;;;;;;;;;;;;5075622;28;7337;-65
2022/12/09 20:35:13;;;;;;;;;;;;;;;;;;5075777;28;7182;-65
2022/12/09 20:37:39;;;;;;;;;;;;;;;;;;5075756;28;7010;-65
2022/12/09 20:40:18;;;;;;;;;;;;;;;;;;5075694;28;7123;-65
2022/12/09 20:42:44;;;;;;;;;;;;;;;;;;5063734;28;6972;-65
2022/12/09 20:45:10;;;;;;;;;;;;;;;;;;5055562;28;7412;-64
2022/12/09 20:47:36;;;;;;;;;;;;;;;;;;5055699;28;7383;-65